Time;durP1;ratioP1;P1;durP2;ratioP2;P2;SDS_P1;SDS_P2;PMS_P1;PMS_P2;Temp;Humidity;BMP_temperature;BMP_pressure;BME280_temperature;BME280_humidity;BME280_pressure;Samples;Min_cycle;Max_cycle;Signal;HPM_P1;HPM_P2
2024/04/15 00:01:03;;;;;;;10.40;4.22;;;10.60;93.50;;;;;;5429642;26;20023;-81
2024/04/15 00:03:29;;;;;;;10.32;4.40;;;10.60;95.90;;;;;;5403642;26;20017;-82
2024/04/15 00:05:54;;;;;;;10.10;4.22;;;10.50;93.40;;;;;;5409014;26;20446;-81
2024/04/15 00:08:20;;;;;;;13.63;4.28;;;10.50;94.70;;;;;;5381426;26;20044;-81
2024/04/15 00:10:46;;;;;;;5.60;3.45;;;10.50;94.20;;;;;;5406381;26;20059;-82
2024/04/15 00:13:12;;;;;;;4.03;2.10;;;10.50;93.70;;;;;;5402553;26;20054;-81
2024/04/15 00:15:38;;;;;;;3.38;2.30;;;10.50;93.50;;;;;;5437632;26;20485;-81
2024/04/15 00:18:04;;;;;;;4.22;2.17;;;10.60;93.40;;;;;;5399360;26;20076;-80
2024/04/15 00:20:29;;;;;;;9.85;3.63;;;10.60;93.20;;;;;;5405013;26;20036;-81
2024/04/15 00:22:55;;;;;;;6.03;2.15;;;10.60;93.30;;;;;;5404447;26;20400;-81
2024/04/15 00:25:21;;;;;;;4.35;2.67;;;10.70;92.80;;;;;;5411643;26;19995;-81
2024/04/15 00:27:47;;;;;;;4.38;2.47;;;10.70;93.20;;;;;;5436530;26;20014;-81
2024/04/15 00:30:12;;;;;;;2.95;1.67;;;10.60;92.90;;;;;;5435446;26;20470;-81
2024/04/15 00:32:38;;;;;;;4.38;2.40;;;10.60;93.00;;;;;;5424176;26;20014;-80
2024/04/15 00:35:04;;;;;;;5.63;2.40;;;10.50;92.70;;;;;;5434851;26;20451;-80
2024/04/15 00:37:29;;;;;;;2.97;1.60;;;10.50;92.50;;;;;;5399139;26;20003;-80
2024/04/15 00:39:55;;;;;;;4.75;2.38;;;10.40;93.30;;;;;;5378869;26;20068;-80
2024/04/15 00:42:21;;;;;;;4.70;2.78;;;10.40;92.60;;;;;;5402913;26;19994;-80
2024/04/15 00:44:47;;;;;;;7.57;4.35;;;10.50;94.00;;;;;;5443044;26;19998;-82
2024/04/15 00:47:12;;;;;;;6.55;2.30;;;10.40;92.90;;;;;;5431049;26;20010;-81
2024/04/15 00:49:38;;;;;;;6.25;2.60;;;10.40;92.80;;;;;;5399595;26;19999;-79
2024/04/15 00:52:04;;;;;;;7.93;4.13;;;10.50;93.40;;;;;;5393921;26;20023;-80
2024/04/15 00:54:31;;;;;;;7.95;3.25;;;10.40;93.20;;;;;;5399543;26;20427;-80
2024/04/15 00:56:56;;;;;;;3.63;2.70;;;10.30;92.70;;;;;;5378741;26;20009;-80
2024/04/15 00:59:22;;;;;;;4.32;3.05;;;10.20;93.00;;;;;;5431958;26;20429;-80
2024/04/15 01:01:47;;;;;;;3.78;2.83;;;10.20;93.40;;;;;;5429751;26;20003;-80
2024/04/15 01:04:13;;;;;;;4.22;2.55;;;10.10;94.40;;;;;;5424654;26;20007;-80
2024/04/15 01:06:40;;;;;;;7.60;2.88;;;10.30;94.00;;;;;;5408882;26;20465;-81
2024/04/15 01:09:05;;;;;;;3.65;2.70;;;10.20;94.50;;;;;;5426931;26;20016;-81
2024/04/15 01:11:31;;;;;;;3.75;1.52;;;10.20;93.80;;;;;;5430951;26;19998;-80
2024/04/15 01:13:57;;;;;;;8.45;3.17;;;10.40;95.20;;;;;;5404107;26;19999;-80
2024/04/15 01:16:22;;;;;;;6.85;3.88;;;10.30;94.60;;;;;;5429838;26;20003;-80
2024/04/15 01:18:48;;;;;;;7.50;3.67;;;10.40;94.40;;;;;;5434763;26;20030;-81
2024/04/15 01:21:13;;;;;;;8.38;3.63;;;10.20;95.10;;;;;;5398248;26;20003;-80
2024/04/15 01:23:46;;;;;;;7.10;4.13;;;10.10;94.30;;;;;;5406440;26;20052;-80
2024/04/15 01:26:12;;;;;;;12.23;4.18;;;10.00;94.20;;;;;;5395665;26;20012;-80
2024/04/15 01:28:38;;;;;;;9.93;4.53;;;10.00;94.70;;;;;;5427582;26;20011;-80
2024/04/15 01:31:03;;;;;;;10.43;3.45;;;10.00;94.80;;;;;;5431261;26;20003;-80
2024/04/15 01:33:29;;;;;;;6.40;3.85;;;10.00;95.10;;;;;;5383517;26;20003;-80
2024/04/15 01:35:54;;;;;;;10.15;4.22;;;10.20;95.60;;;;;;5409195;26;19995;-76
2024/04/15 01:38:20;;;;;;;6.45;3.75;;;10.10;95.10;;;;;;5402415;26;20035;-76
2024/04/15 01:40:45;;;;;;;5.60;3.92;;;10.10;96.20;;;;;;5412138;26;20029;-77
2024/04/15 01:43:11;;;;;;;6.47;4.22;;;10.10;95.00;;;;;;5434993;26;19999;-77
2024/04/15 01:45:37;;;;;;;9.63;5.22;;;10.00;95.30;;;;;;5416018;26;19999;-77
2024/04/15 01:48:03;;;;;;;7.63;5.65;;;10.00;95.70;;;;;;5409759;26;19998;-76
2024/04/15 01:50:31;;;;;;;9.90;4.75;;;9.80;95.20;;;;;;5407416;26;20019;-76
2024/04/15 01:52:57;;;;;;;9.07;6.30;;;9.80;95.80;;;;;;5389864;26;20443;-78
2024/04/15 01:55:22;;;;;;;12.90;5.57;;;9.80;96.90;;;;;;5406570;26;20014;-76
2024/04/15 01:57:48;;;;;;;8.35;5.32;;;9.80;96.60;;;;;;5371110;26;20011;-80
2024/04/15 02:00:13;;;;;;;7.50;3.85;;;9.80;95.80;;;;;;5369935;26;20014;-81
2024/04/15 02:02:39;;;;;;;7.63;4.05;;;9.90;96.80;;;;;;5431804;26;20007;-80
2024/04/15 02:05:07;;;;;;;11.15;5.25;;;9.90;96.40;;;;;;5384012;26;20447;-81
2024/04/15 02:07:34;;;;;;;9.60;4.78;;;9.90;96.30;;;;;;5431542;26;20372;-81
2024/04/15 02:10:00;;;;;;;7.40;4.97;;;9.70;96.60;;;;;;5400837;26;20022;-80
2024/04/15 02:12:25;;;;;;;9.85;5.25;;;9.70;97.60;;;;;;5397432;26;20431;-80
2024/04/15 02:14:51;;;;;;;7.07;3.95;;;9.70;96.50;;;;;;5402361;26;20017;-80
2024/04/15 02:17:16;;;;;;;9.27;6.20;;;9.60;97.00;;;;;;5438280;26;19999;-81
2024/04/15 02:19:42;;;;;;;10.20;5.10;;;9.70;97.60;;;;;;5433208;26;20000;-80
2024/04/15 02:22:07;;;;;;;7.20;4.88;;;9.60;98.20;;;;;;5409106;26;19995;-81
2024/04/15 02:24:33;;;;;;;5.15;3.90;;;9.70;98.70;;;;;;5396597;26;20706;-80
2024/04/15 02:26:58;;;;;;;8.68;3.95;;;9.90;97.80;;;;;;5403202;26;20011;-81
2024/04/15 02:29:26;;;;;;;9.10;4.97;;;10.10;97.10;;;;;;5398078;26;20014;-80
2024/04/15 02:31:52;;;;;;;5.43;3.88;;;10.20;97.50;;;;;;5429416;26;20013;-81
2024/04/15 02:34:17;;;;;;;9.50;5.82;;;10.20;97.90;;;;;;5436415;26;20011;-80
2024/04/15 02:36:43;;;;;;;5.60;4.18;;;10.20;97.30;;;;;;5404574;26;20003;-79
2024/04/15 02:39:08;;;;;;;8.25;5.15;;;10.10;98.10;;;;;;5379050;26;19999;-80
2024/04/15 02:41:34;;;;;;;12.07;5.53;;;10.00;98.40;;;;;;5433756;26;20343;-80
2024/04/15 02:43:59;;;;;;;12.10;8.43;;;10.00;99.30;;;;;;5429391;26;20461;-82
2024/04/15 02:46:25;;;;;;;7.60;4.43;;;10.00;99.00;;;;;;5432444;26;20153;-81
2024/04/15 02:48:50;;;;;;;7.15;5.00;;;9.80;99.40;;;;;;5437191;26;20021;-79
2024/04/15 02:51:16;;;;;;;11.10;5.15;;;9.90;99.40;;;;;;5414988;26;20467;-79
2024/04/15 02:53:41;;;;;;;8.18;5.63;;;10.00;99.40;;;;;;5407945;26;20451;-79
2024/04/15 02:56:07;;;;;;;8.65;5.20;;;10.10;99.80;;;;;;5426891;26;20450;-81
2024/04/15 02:58:33;;;;;;;9.43;5.57;;;10.10;99.90;;;;;;5435936;26;20027;-82
2024/04/15 03:00:58;;;;;;;9.88;5.60;;;10.20;99.90;;;;;;5434477;26;19999;-77
2024/04/15 03:03:24;;;;;;;16.70;7.38;;;10.20;99.90;;;;;;5393534;26;20452;-77
2024/04/15 03:05:49;;;;;;;8.25;5.55;;;10.20;99.60;;;;;;5383497;26;20324;-77
2024/04/15 03:08:15;;;;;;;16.38;9.00;;;10.20;99.90;;;;;;5379494;26;20412;-77
2024/04/15 03:10:40;;;;;;;14.75;8.93;;;10.20;99.90;;;;;;5424892;26;20753;-77
2024/04/15 03:13:06;;;;;;;13.95;6.35;;;10.20;99.90;;;;;;5403144;26;20455;-77
2024/04/15 03:15:32;;;;;;;14.77;8.20;;;10.10;99.90;;;;;;5429805;26;19995;-77
2024/04/15 03:18:02;;;;;;;8.23;6.30;;;10.10;99.90;;;;;;5401205;26;20447;-77
2024/04/15 03:20:27;;;;;;;10.02;7.13;;;10.00;99.90;;;;;;5377943;26;20451;-77
2024/04/15 03:22:53;;;;;;;10.45;6.90;;;10.00;99.90;;;;;;5411245;26;20010;-78
2024/04/15 03:25:20;;;;;;;10.10;6.97;;;10.10;99.90;;;;;;5402151;26;20509;-77
2024/04/15 03:27:47;;;;;;;10.13;6.78;;;10.00;99.90;;;;;;5393588;26;20036;-77
2024/04/15 03:30:12;;;;;;;8.65;6.38;;;10.00;99.90;;;;;;5400808;26;20038;-76
2024/04/15 03:32:38;;;;;;;11.82;6.60;;;10.00;99.90;;;;;;5411090;26;20048;-76
2024/04/15 03:35:04;;;;;;;8.18;5.57;;;9.80;99.90;;;;;;5432008;26;20003;-76
2024/04/15 03:37:30;;;;;;;13.43;6.88;;;9.90;99.90;;;;;;5433976;26;19999;-76
2024/04/15 03:39:56;;;;;;;15.60;8.18;;;9.90;99.90;;;;;;5429738;26;20004;-76
2024/04/15 03:42:21;;;;;;;11.75;6.85;;;9.80;99.90;;;;;;5400473;26;20010;-77
2024/04/15 03:44:52;;;;;;;9.73;7.07;;;9.90;99.90;;;;;;5393544;26;20014;-76
2024/04/15 03:47:17;;;;;;;8.93;6.55;;;9.80;99.90;;;;;;5403875;26;20004;-77
2024/04/15 03:49:43;;;;;;;14.60;6.65;;;9.80;99.90;;;;;;5390710;26;20003;-77
2024/04/15 03:52:10;;;;;;;10.75;6.45;;;9.70;99.90;;;;;;5422509;26;19999;-77
2024/04/15 03:54:38;;;;;;;11.48;6.93;;;9.70;99.90;;;;;;5433897;26;20010;-76
2024/04/15 03:57:04;;;;;;;13.35;7.28;;;9.60;99.90;;;;;;5408140;26;20006;-76
2024/04/15 03:59:29;;;;;;;9.02;5.95;;;9.70;99.90;;;;;;5411682;26;20006;-77
2024/04/15 04:01:55;;;;;;;11.07;5.95;;;9.60;99.90;;;;;;5402322;26;19996;-77
2024/04/15 04:04:22;;;;;;;9.43;7.05;;;9.60;99.90;;;;;;5430393;26;20011;-77
2024/04/15 04:06:48;;;;;;;14.43;7.47;;;9.50;99.90;;;;;;5372371;26;20051;-77
2024/04/15 04:09:13;;;;;;;9.75;6.38;;;9.50;99.90;;;;;;5398502;26;20003;-77
2024/04/15 04:11:39;;;;;;;9.45;6.28;;;9.30;99.90;;;;;;5399974;26;20011;-81
2024/04/15 04:14:05;;;;;;;12.10;7.10;;;9.40;99.90;;;;;;5420206;26;20006;-81
2024/04/15 04:16:30;;;;;;;10.10;6.40;;;9.30;99.90;;;;;;5435203;26;20003;-81
2024/04/15 04:18:56;;;;;;;8.88;5.60;;;9.20;99.90;;;;;;5434231;26;20357;-81
2024/04/15 04:21:22;;;;;;;6.57;4.10;;;9.20;99.90;;;;;;5401642;26;20046;-81
2024/04/15 04:23:47;;;;;;;10.38;5.80;;;9.30;99.90;;;;;;5435827;26;20048;-81
2024/04/15 04:26:13;;;;;;;12.32;6.50;;;9.30;99.90;;;;;;5401318;26;20005;-81
2024/04/15 04:28:39;;;;;;;9.18;4.47;;;9.40;99.90;;;;;;5399604;26;20009;-83
2024/04/15 04:31:04;;;;;;;13.15;6.10;;;9.30;99.90;;;;;;5427004;26;20713;-82
2024/04/15 04:33:31;;;;;;;15.48;6.68;;;9.40;99.90;;;;;;5404175;26;20013;-81
2024/04/15 04:35:58;;;;;;;9.25;5.13;;;9.30;99.90;;;;;;5433724;26;20022;-80
2024/04/15 04:38:24;;;;;;;10.90;5.97;;;9.10;99.90;;;;;;5366235;26;19999;-81
2024/04/15 04:40:59;;;;;;;12.75;6.18;;;9.20;99.90;;;;;;5418413;26;20012;-81
2024/04/15 04:43:25;;;;;;;18.50;6.23;;;9.20;99.90;;;;;;5427733;26;20010;-80
2024/04/15 04:45:51;;;;;;;11.95;6.28;;;9.10;99.90;;;;;;5404514;26;20275;-80
2024/04/15 04:48:16;;;;;;;11.27;5.43;;;9.20;99.90;;;;;;5408280;26;19999;-80
2024/04/15 04:50:42;;;;;;;10.40;5.68;;;9.20;99.90;;;;;;5401375;26;20003;-81
2024/04/15 04:53:07;;;;;;;15.23;6.45;;;9.20;99.90;;;;;;5429508;26;19998;-81
2024/04/15 04:55:36;;;;;;;13.57;6.47;;;9.10;99.90;;;;;;5406978;26;20003;-80
2024/04/15 04:58:05;;;;;;;7.53;5.32;;;9.20;99.90;;;;;;5379474;26;20492;-81
2024/04/15 05:00:31;;;;;;;12.13;5.57;;;9.20;99.90;;;;;;5382286;26;20018;-80
2024/04/15 05:02:56;;;;;;;10.25;4.63;;;9.20;99.90;;;;;;5408452;26;20024;-80
2024/04/15 05:05:22;;;;;;;17.02;5.32;;;9.20;99.90;;;;;;5427987;26;20462;-79
2024/04/15 05:07:47;;;;;;;8.07;5.25;;;9.10;99.90;;;;;;5407091;26;20465;-79
2024/04/15 05:10:16;;;;;;;9.75;4.72;;;9.10;99.90;;;;;;5430703;26;20003;-79
2024/04/15 05:12:41;;;;;;;10.93;5.53;;;9.00;99.90;;;;;;5424238;26;20352;-80
2024/04/15 05:15:07;;;;;;;9.98;4.95;;;9.10;99.90;;;;;;5436706;26;20020;-80
2024/04/15 05:17:33;;;;;;;11.18;5.57;;;9.00;99.90;;;;;;5406055;26;20343;-79
2024/04/15 05:19:58;;;;;;;5.82;2.95;;;9.20;99.90;;;;;;5384911;26;20035;-79
2024/04/15 05:22:24;;;;;;;9.52;4.95;;;9.00;99.90;;;;;;5440624;26;20043;-80
2024/04/15 05:24:50;;;;;;;8.15;4.65;;;9.00;99.90;;;;;;5434853;26;20446;-79
2024/04/15 05:27:15;;;;;;;8.50;4.47;;;9.10;99.90;;;;;;5430687;26;20666;-80
2024/04/15 05:29:41;;;;;;;13.88;5.53;;;9.30;99.90;;;;;;5405621;26;20073;-80
2024/04/15 05:32:06;;;;;;;9.25;4.43;;;9.20;99.90;;;;;;5427535;26;19994;-80
2024/04/15 05:34:33;;;;;;;8.05;3.83;;;9.10;99.90;;;;;;5434659;26;19995;-81
2024/04/15 05:36:59;;;;;;;9.48;4.20;;;9.10;99.90;;;;;;5400503;26;20015;-80
2024/04/15 05:39:24;;;;;;;7.05;2.85;;;9.10;99.90;;;;;;5414833;26;20015;-79
2024/04/15 05:41:50;;;;;;;8.57;4.57;;;9.10;99.90;;;;;;5400685;26;20002;-80
2024/04/15 05:44:15;;;;;;;9.38;3.97;;;9.00;99.90;;;;;;5400231;26;20076;-80
2024/04/15 05:46:49;;;;;;;4.53;3.03;;;9.10;99.90;;;;;;5430737;26;20436;-78
2024/04/15 05:49:14;;;;;;;7.60;3.92;;;9.20;99.90;;;;;;5442645;26;20007;-80
2024/04/15 05:51:40;;;;;;;7.22;3.25;;;9.10;99.90;;;;;;5441065;26;20459;-79
2024/04/15 05:54:05;;;;;;;8.48;2.80;;;9.20;99.90;;;;;;5411042;26;20157;-78
2024/04/15 05:56:31;;;;;;;10.68;3.35;;;9.10;99.90;;;;;;5412157;26;20054;-81
2024/04/15 05:58:56;;;;;;;10.35;3.13;;;9.30;99.90;;;;;;5404929;26;20003;-81
2024/04/15 06:01:22;;;;;;;7.28;2.38;;;9.30;99.90;;;;;;5439724;26;20065;-81
2024/04/15 06:03:47;;;;;;;9.45;2.78;;;9.30;99.90;;;;;;5401156;26;20048;-80
2024/04/15 06:06:13;;;;;;;5.18;2.50;;;9.40;99.90;;;;;;5399057;26;20010;-80
2024/04/15 06:08:39;;;;;;;8.77;2.85;;;9.40;99.90;;;;;;5404904;26;20000;-80
2024/04/15 06:11:04;;;;;;;8.90;3.28;;;9.40;99.90;;;;;;5413346;26;20076;-81
2024/04/15 06:13:30;;;;;;;6.25;2.35;;;9.50;99.90;;;;;;5401293;26;20025;-81
2024/04/15 06:15:55;;;;;;;6.97;2.45;;;9.40;99.90;;;;;;5429207;26;20006;-79
2024/04/15 06:18:21;;;;;;;10.05;3.53;;;9.50;99.90;;;;;;5435026;26;20076;-79
2024/04/15 06:20:46;;;;;;;9.15;3.40;;;9.50;99.90;;;;;;5426837;26;20455;-79
2024/04/15 06:23:13;;;;;;;9.20;4.28;;;9.50;99.90;;;;;;5411108;26;20539;-80
2024/04/15 06:25:38;;;;;;;5.18;2.38;;;9.50;99.90;;;;;;5431330;26;20461;-78
2024/04/15 06:28:04;;;;;;;5.20;1.70;;;9.50;99.90;;;;;;5441588;26;19999;-79
2024/04/15 06:30:30;;;;;;;9.68;3.20;;;9.60;99.90;;;;;;5433809;26;20075;-79
2024/04/15 06:32:55;;;;;;;7.60;2.88;;;9.50;99.90;;;;;;5434423;26;20025;-80
2024/04/15 06:35:21;;;;;;;5.90;1.85;;;9.60;99.90;;;;;;5424099;26;20345;-79
2024/04/15 06:37:47;;;;;;;3.88;1.52;;;9.60;99.90;;;;;;5378489;26;20412;-79
2024/04/15 06:40:13;;;;;;;7.88;2.83;;;9.60;99.90;;;;;;5426400;26;20071;-79
2024/04/15 06:42:39;;;;;;;8.20;2.72;;;9.60;99.90;;;;;;5392963;26;20362;-79
2024/04/15 06:45:05;;;;;;;5.03;2.10;;;9.60;99.90;;;;;;5436014;26;20458;-80
2024/04/15 06:47:31;;;;;;;5.68;2.42;;;9.70;99.90;;;;;;5428338;26;20072;-80
2024/04/15 06:49:56;;;;;;;5.18;2.10;;;9.70;99.90;;;;;;5431226;26;20055;-80
2024/04/15 06:52:22;;;;;;;2.75;1.35;;;9.80;99.90;;;;;;5398298;26;20053;-80
2024/04/15 06:54:47;;;;;;;5.40;3.47;;;9.80;99.90;;;;;;5397835;26;20360;-80
2024/04/15 06:57:13;;;;;;;9.35;3.45;;;9.90;99.90;;;;;;5436653;26;20102;-80
2024/04/15 06:59:38;;;;;;;5.38;2.38;;;9.90;99.90;;;;;;5427631;26;20003;-80
2024/04/15 07:02:04;;;;;;;8.30;2.72;;;10.00;99.90;;;;;;5438066;26;20095;-81
2024/04/15 07:04:30;;;;;;;8.48;3.33;;;10.00;99.90;;;;;;5438807;26;20002;-81
2024/04/15 07:06:55;;;;;;;12.05;3.53;;;10.10;99.90;;;;;;5428677;26;20810;-81
2024/04/15 07:09:21;;;;;;;6.68;2.17;;;10.10;99.90;;;;;;5398273;26;20013;-80
2024/04/15 07:11:46;;;;;;;3.80;2.40;;;10.10;99.90;;;;;;5375933;26;20006;-78
2024/04/15 07:14:12;;;;;;;3.97;1.10;;;10.00;99.90;;;;;;5407351;26;20002;-79
2024/04/15 07:16:38;;;;;;;5.00;2.15;;;10.00;99.90;;;;;;5433384;26;20003;-81
2024/04/15 07:19:03;;;;;;;12.50;2.50;;;10.20;99.90;;;;;;5405702;26;21021;-80
2024/04/15 07:21:29;;;;;;;17.75;3.25;;;10.30;99.90;;;;;;5397559;26;20390;-80
2024/04/15 07:23:54;;;;;;;6.88;2.83;;;10.40;99.90;;;;;;5407887;26;20003;-81
2024/04/15 07:26:20;;;;;;;3.80;1.63;;;10.40;99.90;;;;;;5424253;26;19999;-79
2024/04/15 07:28:46;;;;;;;12.25;1.48;;;10.50;99.90;;;;;;5406325;26;19999;-82
2024/04/15 07:31:11;;;;;;;5.10;2.15;;;10.50;99.90;;;;;;5407331;26;20007;-84
2024/04/15 07:33:37;;;;;;;9.07;2.80;;;10.60;99.90;;;;;;5399579;26;20014;-83
2024/04/15 07:36:03;;;;;;;4.78;2.33;;;10.70;99.90;;;;;;5401498;26;20011;-82
2024/04/15 07:38:29;;;;;;;5.28;1.38;;;10.80;99.90;;;;;;5405651;26;20100;-83
2024/04/15 07:40:58;;;;;;;7.78;1.52;;;10.80;99.90;;;;;;5423050;26;19999;-83
2024/04/15 07:43:24;;;;;;;4.80;1.55;;;10.80;99.90;;;;;;5425706;26;20079;-85
2024/04/15 07:45:49;;;;;;;6.78;1.52;;;10.90;99.90;;;;;;5433318;26;20007;-82
2024/04/15 07:48:15;;;;;;;7.88;1.92;;;11.10;99.90;;;;;;5401974;26;20003;-84
2024/04/15 07:50:41;;;;;;;4.63;1.75;;;11.10;99.90;;;;;;5396494;26;20018;-83
2024/04/15 07:53:06;;;;;;;9.82;3.03;;;11.20;99.90;;;;;;5427337;26;20355;-84
2024/04/15 07:55:32;;;;;;;5.03;1.95;;;11.40;99.90;;;;;;5426518;26;20675;-85
2024/04/15 07:58:04;;;;;;;6.57;2.30;;;11.50;99.90;;;;;;5434299;26;19999;-84
2024/04/15 08:00:30;;;;;;;1.88;0.93;;;11.60;99.90;;;;;;5393434;26;19999;-83
2024/04/15 08:02:55;;;;;;;3.70;1.67;;;11.60;99.90;;;;;;5369681;26;20031;-78
2024/04/15 08:05:21;;;;;;;4.72;1.88;;;11.70;99.90;;;;;;5405292;26;19999;-77
2024/04/15 08:07:46;;;;;;;4.72;1.25;;;11.80;99.90;;;;;;5404725;26;20042;-78
2024/04/15 08:10:14;;;;;;;7.28;1.55;;;11.80;99.90;;;;;;5369349;26;20002;-83
2024/04/15 08:12:40;;;;;;;5.25;1.50;;;11.90;99.90;;;;;;5433426;26;20051;-82
2024/04/15 08:15:06;;;;;;;6.85;2.53;;;12.00;99.90;;;;;;5390927;26;20480;-82
2024/04/15 08:17:32;;;;;;;5.85;1.75;;;12.10;99.90;;;;;;5401802;26;20010;-82
2024/04/15 08:19:57;;;;;;;2.65;1.15;;;12.10;99.90;;;;;;5392226;26;20529;-83
2024/04/15 08:22:23;;;;;;;9.95;3.15;;;12.10;99.90;;;;;;5400201;26;19999;-82
2024/04/15 08:24:49;;;;;;;2.50;1.38;;;12.20;99.70;;;;;;5388445;26;20010;-81
2024/04/15 08:27:14;;;;;;;5.20;1.25;;;12.20;98.90;;;;;;5399817;26;20695;-82
2024/04/15 08:29:40;;;;;;;6.78;1.90;;;12.30;98.40;;;;;;5424905;26;20542;-82
2024/04/15 08:32:05;;;;;;;4.53;1.40;;;12.40;99.10;;;;;;5434524;26;19995;-82
2024/04/15 08:34:31;;;;;;;11.27;1.65;;;12.60;98.40;;;;;;5425444;26;20003;-82
2024/04/15 08:36:57;;;;;;;3.75;1.40;;;12.60;98.40;;;;;;5425756;26;20362;-81
2024/04/15 08:39:22;;;;;;;7.82;1.70;;;12.80;97.90;;;;;;5407478;26;20058;-81
2024/04/15 08:41:50;;;;;;;1.42;1.02;;;13.00;98.50;;;;;;5400990;26;20014;-81
2024/04/15 08:44:18;;;;;;;4.80;1.67;;;13.10;98.30;;;;;;5429387;26;20004;-82
2024/04/15 08:46:44;;;;;;;4.70;1.23;;;13.30;98.50;;;;;;5427194;26;20068;-82
2024/04/15 08:49:10;;;;;;;6.43;1.48;;;13.20;97.70;;;;;;5423315;26;20004;-82
2024/04/15 08:51:35;;;;;;;2.90;1.13;;;13.30;98.50;;;;;;5391452;26;20011;-81
2024/04/15 08:54:01;;;;;;;6.32;1.45;;;13.30;96.70;;;;;;5406231;26;20035;-81
2024/04/15 08:56:27;;;;;;;5.47;1.50;;;13.40;96.40;;;;;;5430685;26;20076;-81
2024/04/15 08:58:56;;;;;;;3.83;0.88;;;13.40;95.50;;;;;;5439426;26;19998;-81
2024/04/15 09:01:21;;;;;;;5.50;1.35;;;13.50;96.40;;;;;;5398509;26;20353;-82
2024/04/15 09:03:48;;;;;;;5.40;1.50;;;13.60;96.00;;;;;;5429052;26;20003;-80
2024/04/15 09:06:14;;;;;;;4.47;1.58;;;13.50;95.80;;;;;;5402875;26;20382;-82
2024/04/15 09:08:46;;;;;;;8.18;1.63;;;13.70;95.50;;;;;;5434218;26;20014;-81
2024/04/15 09:11:14;;;;;;;3.08;0.98;;;13.90;98.30;;;;;;5404134;26;20015;-82
2024/04/15 09:13:40;;;;;;;3.45;1.30;;;14.00;94.90;;;;;;5396483;26;20004;-81
2024/04/15 09:16:08;;;;;;;3.78;0.98;;;14.20;96.00;;;;;;5372443;26;20073;-82
2024/04/15 09:18:34;;;;;;;7.70;1.10;;;14.30;94.60;;;;;;5408419;26;20104;-81
2024/04/15 09:20:59;;;;;;;5.40;1.60;;;14.20;93.50;;;;;;5392411;26;20008;-80
2024/04/15 09:23:26;;;;;;;3.63;1.30;;;14.40;92.30;;;;;;5405586;26;20560;-81
2024/04/15 09:25:51;;;;;;;8.00;1.10;;;14.70;93.80;;;;;;5388062;26;20061;-80
2024/04/15 09:28:17;;;;;;;3.40;1.08;;;14.60;92.20;;;;;;5398403;26;20000;-79
2024/04/15 09:30:44;;;;;;;3.55;1.30;;;14.80;92.30;;;;;;5437466;26;20022;-82
2024/04/15 09:33:13;;;;;;;4.25;1.00;;;14.70;91.50;;;;;;5378720;26;20475;-82
2024/04/15 09:35:39;;;;;;;5.63;1.15;;;14.90;92.00;;;;;;5427799;26;20035;-82
2024/04/15 09:38:07;;;;;;;7.80;1.10;;;15.10;91.20;;;;;;5426173;26;20006;-81
2024/04/15 09:40:33;;;;;;;3.25;1.05;;;15.00;91.60;;;;;;5432301;26;20013;-81
2024/04/15 09:42:58;;;;;;;5.13;1.10;;;14.80;90.30;;;;;;5431213;26;20003;-81
2024/04/15 09:45:24;;;;;;;5.05;1.08;;;15.10;91.40;;;;;;5401731;26;19999;-75
2024/04/15 09:47:53;;;;;;;5.47;0.88;;;15.40;92.40;;;;;;5429211;26;20022;-81
2024/04/15 09:50:22;;;;;;;5.53;1.13;;;15.20;91.20;;;;;;5379958;26;20348;-80
2024/04/15 09:52:56;;;;;;;1.92;0.73;;;15.20;91.00;;;;;;5413739;26;19998;-82
2024/04/15 09:55:27;;;;;;;8.00;1.27;;;15.40;91.30;;;;;;5405467;26;20000;-81
2024/04/15 09:57:53;;;;;;;5.82;0.77;;;15.40;91.80;;;;;;5408937;26;20658;-81
2024/04/15 10:00:19;;;;;;;5.07;1.10;;;15.00;90.10;;;;;;5445657;26;20003;-82
2024/04/15 10:03:07;;;;;;;2.75;1.40;;;14.70;90.00;;;;;;5404150;26;20017;-76
2024/04/15 10:05:32;;;;;;;8.32;1.13;;;15.20;90.50;;;;;;5373019;26;20049;-76
2024/04/15 10:07:58;;;;;;;4.07;0.93;;;15.40;90.40;;;;;;5397519;26;20022;-76
2024/04/15 10:10:26;;;;;;;1.75;0.68;;;15.40;90.40;;;;;;5401092;26;20003;-77
2024/04/15 10:12:52;;;;;;;3.10;0.93;;;15.70;91.20;;;;;;5429240;26;19999;-77
2024/04/15 10:15:18;;;;;;;7.75;1.05;;;15.80;90.00;;;;;;5408812;26;20040;-77
2024/04/15 10:18:12;;;;;;;3.08;1.10;;;15.60;90.10;;;;;;5407495;26;20076;-77
2024/04/15 10:20:42;;;;;;;2.45;0.70;;;15.50;90.90;;;;;;5398868;26;19999;-78
2024/04/15 10:23:13;;;;;;;1.50;0.88;;;16.10;91.50;;;;;;5375327;26;20029;-77
2024/04/15 10:25:39;;;;;;;3.28;1.05;;;16.20;90.00;;;;;;5401017;26;20079;-77
2024/04/15 10:28:06;;;;;;;1.63;0.80;;;16.10;88.10;;;;;;5397110;26;19991;-77
2024/04/15 10:30:32;;;;;;;4.38;0.93;;;16.20;89.80;;;;;;5433767;26;20028;-77
2024/04/15 10:32:59;;;;;;;1.35;0.43;;;16.30;90.30;;;;;;5439284;26;20506;-83
2024/04/15 10:35:25;;;;;;;3.55;0.90;;;16.10;86.50;;;;;;5435417;26;20520;-82
2024/04/15 10:37:52;;;;;;;6.13;1.10;;;15.90;87.10;;;;;;5399723;26;20095;-82
2024/04/15 10:40:26;;;;;;;6.88;1.20;;;16.20;86.50;;;;;;5404893;26;20327;-78
2024/04/15 10:42:52;;;;;;;1.13;0.68;;;16.10;85.30;;;;;;5404852;26;20404;-78
2024/04/15 10:45:19;;;;;;;1.98;1.00;;;16.00;85.90;;;;;;5394711;26;20026;-80
2024/04/15 10:47:47;;;;;;;6.20;1.27;;;16.10;85.40;;;;;;5393918;26;20004;-79
2024/04/15 10:50:13;;;;;;;2.80;1.15;;;16.20;84.60;;;;;;5405996;26;20007;-79
2024/04/15 10:52:40;;;;;;;8.15;2.10;;;16.10;83.80;;;;;;5083093;26;10000555;-78
2024/04/15 10:55:06;;;;;;;5.57;1.52;;;16.10;84.00;;;;;;5061682;26;10000300;-79
2024/04/15 10:57:31;;;;;;;8.35;1.63;;;16.20;84.40;;;;;;5407468;26;20032;-79
2024/04/15 10:59:57;;;;;;;1.35;0.70;;;16.10;82.50;;;;;;5421475;26;19994;-79
2024/04/15 11:02:22;;;;;;;5.65;1.42;;;16.30;82.50;;;;;;5389272;26;20011;-79
2024/04/15 11:04:48;;;;;;;1.77;0.70;;;16.40;83.10;;;;;;5392299;26;20428;-79
2024/04/15 11:07:17;;;;;;;5.15;0.73;;;16.50;82.20;;;;;;5398907;26;20419;-78
2024/04/15 11:09:42;;;;;;;8.98;1.85;;;16.40;81.80;;;;;;5390835;26;19999;-79
2024/04/15 11:12:08;;;;;;;2.03;0.88;;;16.30;81.20;;;;;;5397585;26;20021;-78
2024/04/15 11:14:34;;;;;;;4.50;0.95;;;16.10;79.50;;;;;;5399637;26;20379;-80
2024/04/15 11:17:02;;;;;;;8.27;1.65;;;16.20;80.00;;;;;;5379184;26;20007;-79
2024/04/15 11:19:28;;;;;;;4.82;1.10;;;16.00;79.90;;;;;;5400445;26;20006;-79
2024/04/15 11:22:06;;;;;;;5.07;1.55;;;15.80;78.90;;;;;;5432737;26;20466;-79
2024/04/15 11:24:36;;;;;;;5.97;1.20;;;15.50;79.40;;;;;;5380847;26;20015;-81
2024/04/15 11:27:06;;;;;;;2.47;1.08;;;15.90;79.90;;;;;;5421782;26;19999;-79
2024/04/15 11:29:31;;;;;;;9.32;1.60;;;16.00;79.20;;;;;;5397766;26;20007;-79
2024/04/15 11:31:57;;;;;;;3.33;1.60;;;16.20;79.30;;;;;;5421175;26;20458;-80
2024/04/15 11:34:23;;;;;;;5.03;1.38;;;16.30;79.90;;;;;;5407414;26;20003;-80
2024/04/15 11:36:49;;;;;;;8.80;1.35;;;16.30;78.50;;;;;;5379861;26;20363;-80
2024/04/15 11:39:15;;;;;;;3.53;1.02;;;16.10;80.30;;;;;;5377480;26;19995;-80
2024/04/15 11:41:41;;;;;;;2.53;1.38;;;16.20;79.20;;;;;;5388874;26;20002;-79
2024/04/15 11:44:08;;;;;;;5.82;1.20;;;16.30;78.80;;;;;;5378735;26;20347;-80
2024/04/15 11:46:41;;;;;;;7.57;1.42;;;16.30;78.80;;;;;;5424790;26;20455;-79
2024/04/15 11:49:07;;;;;;;5.68;1.00;;;16.40;78.90;;;;;;5431764;26;20356;-80
2024/04/15 11:51:34;;;;;;;4.45;1.30;;;16.30;77.80;;;;;;5398055;26;20018;-80
2024/04/15 11:54:00;;;;;;;3.58;1.30;;;16.40;77.40;;;;;;5387443;26;20355;-83
2024/04/15 11:56:32;;;;;;;5.70;1.10;;;17.00;79.60;;;;;;5405949;26;20017;-83
2024/04/15 11:58:57;;;;;;;4.40;1.48;;;17.30;77.60;;;;;;5395330;26;20048;-84
2024/04/15 12:01:23;;;;;;;4.57;1.20;;;17.30;77.50;;;;;;5382401;26;19998;-82
2024/04/15 12:03:49;;;;;;;1.38;0.65;;;17.00;76.40;;;;;;5403698;26;20003;-82
2024/04/15 12:06:14;;;;;;;0.73;0.50;;;17.00;75.80;;;;;;5396718;26;20022;-84
2024/04/15 12:08:40;;;;;;;5.57;1.08;;;16.80;75.90;;;;;;5398824;26;20098;-83
2024/04/15 12:11:12;;;;;;;3.72;0.70;;;16.80;76.50;;;;;;5366576;26;20004;-83
2024/04/15 12:13:37;;;;;;;2.90;0.93;;;17.00;75.90;;;;;;5376362;26;20003;-78
2024/04/15 12:16:03;;;;;;;10.20;1.50;;;17.20;76.40;;;;;;5434221;26;20015;-79
2024/04/15 12:18:29;;;;;;;5.13;1.10;;;17.10;77.00;;;;;;5409027;26;20565;-79
2024/04/15 12:20:55;;;;;;;3.45;1.00;;;16.80;74.90;;;;;;5393080;26;20007;-79
2024/04/15 12:23:20;;;;;;;2.22;0.77;;;17.00;76.00;;;;;;5430047;26;20061;-79
2024/04/15 12:25:46;;;;;;;17.02;0.98;;;17.00;75.50;;;;;;5425080;26;20083;-79
2024/04/15 12:28:11;;;;;;;4.95;0.88;;;16.50;75.90;;;;;;5391481;26;20075;-79
2024/04/15 12:30:37;;;;;;;5.45;1.08;;;16.40;75.50;;;;;;5398455;26;20007;-80
2024/04/15 12:33:03;;;;;;;2.05;0.90;;;16.80;77.00;;;;;;5417661;26;20538;-79
2024/04/15 12:35:30;;;;;;;3.65;0.70;;;16.50;75.40;;;;;;5423063;26;20007;-79
2024/04/15 12:37:57;;;;;;;6.22;0.85;;;16.00;76.30;;;;;;5377846;26;20122;-79
2024/04/15 12:40:22;;;;;;;5.53;1.10;;;15.90;77.20;;;;;;5404727;26;20074;-78
2024/04/15 12:42:48;;;;;;;11.35;1.30;;;15.50;80.00;;;;;;5400016;26;20006;-79